Time;durP1;ratioP1;P1;durP2;ratioP2;P2;SDS_P1;SDS_P2;PMS_P1;PMS_P2;Temp;Humidity;BMP_temperature;BMP_pressure;BME280_temperature;BME280_humidity;BME280_pressure;Samples;Min_cycle;Max_cycle;Signal;HPM_P1;HPM_P2
2022/07/07 00:00:48;;;;;;;25.60;13.15;;;16.30;99.90;;;;;;5050812;28;20186;-69
2022/07/07 00:03:13;;;;;;;25.67;14.90;;;16.30;99.90;;;;;;5042095;28;20525;-71
2022/07/07 00:05:39;;;;;;;29.25;15.00;;;16.40;99.90;;;;;;5057106;28;20045;-69
2022/07/07 00:08:06;;;;;;;26.27;15.25;;;16.30;99.90;;;;;;5048313;28;20053;-69
2022/07/07 00:10:31;;;;;;;27.83;15.32;;;16.40;99.90;;;;;;5071516;28;20044;-69
2022/07/07 00:12:57;;;;;;;27.25;15.25;;;16.40;99.90;;;;;;5062077;28;20045;-69
2022/07/07 00:15:23;;;;;;;30.23;15.50;;;16.30;99.90;;;;;;5061443;28;20045;-72
2022/07/07 00:17:49;;;;;;;28.92;14.77;;;16.40;99.90;;;;;;5018678;28;20044;-69
2022/07/07 00:20:15;;;;;;;23.23;14.40;;;16.40;99.90;;;;;;5046137;28;20136;-70
2022/07/07 00:22:40;;;;;;;21.38;14.00;;;16.40;99.90;;;;;;5042628;28;20486;-70
2022/07/07 00:25:07;;;;;;;23.48;12.95;;;16.40;99.90;;;;;;5064490;28;20065;-70
2022/07/07 00:27:33;;;;;;;26.88;13.80;;;16.40;99.90;;;;;;5045750;28;20059;-69
2022/07/07 00:29:59;;;;;;;20.20;12.82;;;16.40;99.90;;;;;;5074474;28;20041;-69
2022/07/07 00:32:24;;;;;;;21.95;12.32;;;16.40;99.90;;;;;;5051326;28;20075;-69
2022/07/07 00:34:50;;;;;;;17.25;11.45;;;16.40;99.90;;;;;;5032589;28;20076;-73
2022/07/07 00:37:16;;;;;;;18.67;11.25;;;16.40;99.90;;;;;;5066293;28;20045;-71
2022/07/07 00:39:41;;;;;;;20.13;11.60;;;16.50;99.90;;;;;;5069814;28;20052;-70
2022/07/07 00:42:13;;;;;;;20.05;12.02;;;16.40;99.90;;;;;;5057209;28;20098;-70
2022/07/07 00:44:39;;;;;;;20.15;12.10;;;16.40;99.90;;;;;;5044665;28;20128;-69
2022/07/07 00:47:05;;;;;;;21.10;11.43;;;16.40;99.90;;;;;;5057793;28;20127;-69
2022/07/07 00:49:32;;;;;;;19.33;10.82;;;16.40;99.90;;;;;;5067244;28;20041;-69
2022/07/07 00:51:58;;;;;;;22.25;12.30;;;16.40;99.90;;;;;;5053292;28;20456;-69
2022/07/07 00:54:24;;;;;;;18.88;11.13;;;16.40;99.90;;;;;;5033241;28;20052;-69
2022/07/07 00:56:50;;;;;;;18.00;11.25;;;16.40;99.90;;;;;;5043641;28;20369;-69
2022/07/07 00:59:16;;;;;;;22.02;12.13;;;16.40;99.90;;;;;;5039938;28;20045;-69
2022/07/07 01:01:42;;;;;;;23.58;12.57;;;16.50;99.90;;;;;;5077474;28;20044;-73
2022/07/07 01:04:11;;;;;;;22.55;12.30;;;16.40;99.90;;;;;;5068517;28;20481;-69
2022/07/07 01:06:37;;;;;;;22.33;12.85;;;16.40;99.90;;;;;;5050756;28;20045;-74
2022/07/07 01:09:03;;;;;;;20.00;12.25;;;16.40;99.90;;;;;;5052751;28;20445;-69
2022/07/07 01:11:44;;;;;;;19.90;10.85;;;16.40;99.90;;;;;;5069854;28;20397;-69
2022/07/07 01:14:10;;;;;;;18.88;11.85;;;16.40;99.90;;;;;;5064646;28;20074;-70
2022/07/07 01:16:36;;;;;;;21.83;12.68;;;16.40;99.90;;;;;;5047293;28;20055;-69
2022/07/07 01:19:01;;;;;;;17.92;11.65;;;16.40;99.90;;;;;;5068775;28;20067;-69
2022/07/07 01:21:33;;;;;;;18.42;11.65;;;16.40;99.90;;;;;;5049667;28;20051;-69
2022/07/07 01:23:59;;;;;;;14.20;7.20;;;16.40;99.90;;;;;;5070155;28;20102;-70
2022/07/07 01:26:26;;;;;;;11.75;7.40;;;16.40;99.90;;;;;;5046180;28;20049;-70
2022/07/07 01:28:52;;;;;;;12.18;6.25;;;16.40;99.90;;;;;;5066914;28;20127;-70
2022/07/07 01:31:18;;;;;;;15.57;8.35;;;16.30;99.90;;;;;;5050471;28;20080;-72
2022/07/07 01:33:44;;;;;;;11.48;7.10;;;16.30;99.90;;;;;;5067065;28;20557;-70
2022/07/07 01:36:13;;;;;;;10.60;6.35;;;16.20;99.90;;;;;;5060190;28;20102;-70
2022/07/07 01:38:39;;;;;;;8.52;5.82;;;16.20;99.90;;;;;;5040378;28;20041;-70
2022/07/07 01:41:04;;;;;;;8.75;5.30;;;16.20;99.90;;;;;;5070136;28;20105;-69
2022/07/07 01:43:30;;;;;;;8.25;5.10;;;16.20;99.90;;;;;;5029585;28;20037;-69
2022/07/07 01:45:56;;;;;;;9.63;4.68;;;16.10;99.90;;;;;;5059835;28;20045;-69
2022/07/07 01:48:23;;;;;;;8.02;4.80;;;16.20;99.90;;;;;;5078377;28;20068;-69
2022/07/07 01:50:49;;;;;;;8.00;4.32;;;16.10;99.90;;;;;;5085884;28;20090;-70
2022/07/07 01:53:15;;;;;;;8.60;5.40;;;16.10;99.90;;;;;;5087044;28;20044;-71
2022/07/07 01:55:41;;;;;;;11.45;5.50;;;16.10;99.90;;;;;;5033000;28;20049;-70
2022/07/07 01:58:07;;;;;;;8.25;5.85;;;16.10;99.90;;;;;;5058801;28;20047;-69
2022/07/07 02:00:32;;;;;;;8.45;5.97;;;16.00;99.90;;;;;;5060996;28;20064;-72
2022/07/07 02:02:58;;;;;;;7.18;5.05;;;16.00;99.90;;;;;;5063913;28;20077;-72
2022/07/07 02:05:24;;;;;;;8.98;5.43;;;16.00;99.90;;;;;;5067206;28;20067;-70
2022/07/07 02:07:49;;;;;;;7.47;4.85;;;16.10;99.90;;;;;;5057704;28;20123;-69
2022/07/07 02:11:12;;;;;;;9.05;4.75;;;16.00;99.90;;;;;;5060658;28;20058;-70
2022/07/07 02:13:04;;;;;;;8.38;4.45;;;16.00;99.90;;;;;;5048924;28;20139;-69
2022/07/07 02:15:31;;;;;;;6.07;4.20;;;16.10;99.90;;;;;;5046452;28;20094;-69
2022/07/07 02:17:57;;;;;;;6.00;4.05;;;16.10;99.90;;;;;;5047376;28;20055;-72
2022/07/07 02:20:22;;;;;;;5.18;3.83;;;16.10;99.90;;;;;;5059042;28;20056;-69
2022/07/07 02:22:48;;;;;;;8.27;4.80;;;16.10;99.90;;;;;;5064532;28;20056;-69
2022/07/07 02:25:14;;;;;;;9.15;4.88;;;16.10;99.90;;;;;;5047472;28;20048;-69
2022/07/07 02:27:40;;;;;;;12.43;5.20;;;16.10;99.90;;;;;;5055322;28;20037;-69
2022/07/07 02:30:07;;;;;;;9.18;4.40;;;16.10;99.90;;;;;;5053572;28;20401;-70
2022/07/07 02:32:32;;;;;;;13.00;5.20;;;16.10;99.90;;;;;;5051947;28;20657;-69
2022/07/07 02:34:58;;;;;;;13.98;5.82;;;16.10;99.90;;;;;;5072253;28;20055;-70
2022/07/07 02:37:28;;;;;;;8.95;4.95;;;16.20;99.90;;;;;;5090232;28;20508;-70
2022/07/07 02:39:53;;;;;;;13.48;5.22;;;16.10;99.90;;;;;;5052940;28;20045;-70
2022/07/07 02:42:19;;;;;;;12.00;5.47;;;16.20;99.90;;;;;;5058776;28;20037;-69
2022/07/07 02:44:45;;;;;;;9.88;5.68;;;16.10;99.90;;;;;;5070546;28;20040;-70
2022/07/07 02:47:11;;;;;;;11.60;5.47;;;16.10;99.90;;;;;;5054616;28;20045;-69
2022/07/07 02:49:36;;;;;;;11.45;5.95;;;16.10;99.90;;;;;;5096004;28;20501;-69
2022/07/07 02:52:03;;;;;;;15.10;6.53;;;16.10;99.90;;;;;;5082763;28;20049;-70
2022/07/07 02:54:29;;;;;;;13.63;5.90;;;16.20;99.90;;;;;;5059426;28;20519;-71
2022/07/07 02:56:55;;;;;;;13.43;6.55;;;16.20;99.90;;;;;;5077325;28;20049;-70
2022/07/07 02:59:20;;;;;;;9.55;5.45;;;16.20;99.90;;;;;;5088484;28;20059;-69
2022/07/07 03:01:46;;;;;;;13.93;6.07;;;16.10;99.90;;;;;;5066142;28;20056;-69
2022/07/07 03:04:12;;;;;;;13.75;6.47;;;16.10;99.90;;;;;;5075310;28;20073;-73
2022/07/07 03:06:38;;;;;;;11.20;5.60;;;16.20;99.90;;;;;;5063664;28;20103;-68
2022/07/07 03:09:04;;;;;;;10.80;5.40;;;16.20;99.90;;;;;;5057425;28;20440;-69
2022/07/07 03:11:29;;;;;;;13.43;6.28;;;16.20;99.90;;;;;;5041262;28;20484;-69
2022/07/07 03:13:55;;;;;;;11.65;5.85;;;16.20;99.90;;;;;;5055853;28;20048;-69
2022/07/07 03:16:20;;;;;;;10.38;5.13;;;16.10;99.90;;;;;;5052797;28;20052;-69
2022/07/07 03:18:46;;;;;;;14.85;4.53;;;16.10;99.90;;;;;;5070809;28;20080;-69
2022/07/07 03:21:12;;;;;;;9.63;5.20;;;16.20;99.90;;;;;;5049805;28;20049;-75
2022/07/07 03:23:37;;;;;;;14.40;5.78;;;16.10;99.90;;;;;;5053219;28;20049;-70
2022/07/07 03:26:03;;;;;;;11.90;5.95;;;16.10;99.90;;;;;;5052100;28;20056;-72
2022/07/07 03:28:29;;;;;;;14.57;5.10;;;16.10;99.90;;;;;;5044438;28;20107;-70
2022/07/07 03:30:55;;;;;;;10.85;4.90;;;16.10;99.90;;;;;;5041921;28;20041;-69
2022/07/07 03:33:21;;;;;;;18.50;6.05;;;16.10;99.90;;;;;;5047302;28;20052;-69
2022/07/07 03:35:46;;;;;;;9.25;4.05;;;16.10;99.90;;;;;;5064115;28;20102;-68
2022/07/07 03:38:12;;;;;;;14.13;4.70;;;16.10;99.90;;;;;;5035154;28;20135;-73
2022/07/07 03:40:38;;;;;;;14.23;4.40;;;16.10;99.90;;;;;;5052689;28;20082;-71
2022/07/07 03:43:04;;;;;;;14.95;5.07;;;16.10;99.90;;;;;;5036798;28;20049;-72
2022/07/07 03:45:30;;;;;;;15.10;5.20;;;16.10;99.90;;;;;;5060714;28;20049;-70
2022/07/07 03:47:56;;;;;;;13.15;4.30;;;16.10;99.90;;;;;;5049869;28;20049;-70
2022/07/07 03:50:21;;;;;;;12.18;3.85;;;16.10;99.90;;;;;;5040263;28;20049;-69
2022/07/07 03:52:47;;;;;;;10.63;4.05;;;16.10;99.90;;;;;;5052970;28;20037;-69
2022/07/07 03:55:13;;;;;;;10.93;4.28;;;16.00;99.90;;;;;;5063452;28;20131;-68
2022/07/07 03:57:39;;;;;;;12.88;4.05;;;16.00;99.90;;;;;;5049820;28;20045;-69
2022/07/07 04:00:05;;;;;;;10.52;3.33;;;16.00;99.90;;;;;;5031075;28;20044;-69
2022/07/07 04:02:31;;;;;;;10.73;2.50;;;15.90;99.90;;;;;;5029845;28;20045;-71
2022/07/07 04:04:57;;;;;;;7.53;1.70;;;16.00;99.90;;;;;;5048398;28;20045;-69
2022/07/07 04:07:23;;;;;;;6.97;1.80;;;15.90;99.90;;;;;;5040720;28;20474;-69
2022/07/07 04:09:48;;;;;;;6.47;1.83;;;15.80;99.90;;;;;;5064899;28;20041;-68
2022/07/07 04:12:14;;;;;;;8.77;1.88;;;15.80;99.90;;;;;;5054019;28;20041;-68
2022/07/07 04:14:40;;;;;;;7.00;1.70;;;15.80;99.90;;;;;;5058406;28;20098;-68
2022/07/07 04:17:06;;;;;;;8.90;1.35;;;15.80;99.90;;;;;;5049578;28;20045;-68
2022/07/07 04:19:32;;;;;;;10.75;1.90;;;15.80;99.90;;;;;;5042516;28;20161;-73
2022/07/07 04:21:57;;;;;;;9.27;1.60;;;15.70;99.90;;;;;;5059024;28;21920;-68
2022/07/07 04:24:23;;;;;;;8.95;1.33;;;15.80;99.90;;;;;;5055576;28;20091;-69
2022/07/07 04:26:49;;;;;;;4.22;1.17;;;15.70;99.90;;;;;;5043632;28;20087;-68
2022/07/07 04:29:15;;;;;;;11.57;1.13;;;15.80;99.90;;;;;;5037711;28;20041;-68
2022/07/07 04:31:44;;;;;;;7.25;1.30;;;15.70;99.90;;;;;;5023598;28;20517;-69
2022/07/07 04:34:11;;;;;;;8.60;1.30;;;15.70;99.90;;;;;;5042830;28;21361;-69
2022/07/07 04:36:37;;;;;;;7.18;1.20;;;15.70;99.90;;;;;;5036963;28;20044;-73
2022/07/07 04:39:03;;;;;;;6.85;1.42;;;15.60;99.90;;;;;;5052226;28;20486;-68
2022/07/07 04:41:28;;;;;;;11.20;1.20;;;15.60;99.90;;;;;;5047511;28;20044;-69
2022/07/07 04:43:54;;;;;;;9.68;1.20;;;15.60;99.90;;;;;;5019573;28;20430;-72
2022/07/07 04:46:20;;;;;;;10.00;1.55;;;15.70;99.90;;;;;;5058880;28;20044;-69
2022/07/07 04:48:45;;;;;;;7.93;1.60;;;15.80;99.90;;;;;;5023216;28;20486;-68
2022/07/07 04:51:11;;;;;;;10.65;1.30;;;15.60;99.90;;;;;;5051075;28;20041;-68
2022/07/07 04:53:37;;;;;;;9.75;1.80;;;15.60;99.90;;;;;;5039490;28;20048;-69
2022/07/07 04:56:03;;;;;;;10.25;1.70;;;15.60;99.90;;;;;;5050742;28;20057;-70
2022/07/07 04:58:29;;;;;;;8.30;1.90;;;15.60;99.90;;;;;;5047303;28;20119;-70
2022/07/07 05:00:55;;;;;;;11.18;2.10;;;15.50;99.90;;;;;;5054034;28;20048;-69
2022/07/07 05:03:20;;;;;;;11.05;2.10;;;15.40;99.90;;;;;;5044205;28;20045;-72
2022/07/07 05:05:46;;;;;;;13.82;2.45;;;15.40;99.90;;;;;;5043916;28;20045;-69
2022/07/07 05:08:12;;;;;;;13.65;2.30;;;15.40;99.90;;;;;;5057407;28;20064;-72
2022/07/07 05:10:37;;;;;;;12.65;2.10;;;15.40;99.90;;;;;;5023876;28;20045;-68
2022/07/07 05:13:03;;;;;;;9.55;1.80;;;15.30;99.90;;;;;;5038348;28;20072;-68
2022/07/07 05:15:29;;;;;;;13.00;2.40;;;15.20;99.90;;;;;;5057134;28;20060;-69
2022/07/07 05:17:54;;;;;;;12.38;2.40;;;15.20;99.90;;;;;;5035765;28;20052;-69
2022/07/07 05:20:20;;;;;;;9.73;2.20;;;15.20;99.90;;;;;;5026453;28;20588;-72
2022/07/07 05:22:46;;;;;;;15.18;2.88;;;15.20;99.90;;;;;;5033936;28;20537;-69
2022/07/07 05:25:11;;;;;;;12.85;2.70;;;15.20;99.90;;;;;;5037422;28;20053;-69
2022/07/07 05:27:37;;;;;;;15.70;2.80;;;15.20;99.90;;;;;;5047191;28;20466;-68
2022/07/07 05:30:05;;;;;;;12.32;2.67;;;15.20;99.90;;;;;;5047220;28;20178;-74
2022/07/07 05:32:30;;;;;;;14.18;3.00;;;15.30;99.90;;;;;;5034281;28;20056;-69
2022/07/07 05:34:56;;;;;;;15.77;3.00;;;15.30;99.90;;;;;;5041356;28;20041;-70
2022/07/07 05:37:22;;;;;;;15.55;2.80;;;15.30;99.90;;;;;;5031267;28;20071;-70
2022/07/07 05:39:47;;;;;;;11.57;2.50;;;15.30;99.90;;;;;;5069170;28;20109;-69
2022/07/07 05:42:13;;;;;;;11.45;2.50;;;15.30;99.90;;;;;;5059968;28;20048;-69
2022/07/07 05:44:39;;;;;;;15.27;2.78;;;15.30;99.90;;;;;;5069671;28;20049;-68
2022/07/07 05:47:05;;;;;;;15.20;2.97;;;15.40;99.90;;;;;;5053058;28;20757;-68
2022/07/07 05:49:31;;;;;;;14.68;2.70;;;15.40;99.90;;;;;;5055265;28;20083;-70
2022/07/07 05:51:57;;;;;;;14.68;2.63;;;15.30;99.90;;;;;;5032427;28;20091;-71
2022/07/07 05:54:22;;;;;;;15.88;2.70;;;15.30;99.90;;;;;;5067051;28;20552;-69
2022/07/07 05:56:48;;;;;;;10.50;2.72;;;15.30;99.90;;;;;;5046940;28;20086;-69
2022/07/07 05:59:14;;;;;;;15.75;2.88;;;15.30;99.90;;;;;;5054727;28;20041;-68
2022/07/07 06:01:39;;;;;;;15.38;2.78;;;15.30;99.90;;;;;;5057399;28;20044;-68
2022/07/07 06:04:06;;;;;;;11.88;2.47;;;15.30;99.90;;;;;;5056172;28;20052;-69
2022/07/07 06:06:32;;;;;;;12.90;3.03;;;15.40;99.90;;;;;;5074306;28;20055;-68
2022/07/07 06:08:57;;;;;;;10.68;2.42;;;15.30;99.90;;;;;;5037008;28;20470;-71
2022/07/07 06:11:23;;;;;;;10.98;2.50;;;15.40;99.90;;;;;;5041518;28;20052;-69
2022/07/07 06:13:49;;;;;;;15.68;3.10;;;15.40;99.90;;;;;;5069232;28;20048;-70
2022/07/07 06:16:15;;;;;;;16.40;2.95;;;15.40;99.90;;;;;;5056447;28;20094;-69
2022/07/07 06:18:40;;;;;;;23.75;3.50;;;15.30;99.90;;;;;;5059647;28;20393;-69
2022/07/07 06:21:06;;;;;;;17.38;3.53;;;15.30;99.90;;;;;;5045211;28;20037;-69
2022/07/07 06:23:32;;;;;;;19.33;2.72;;;15.40;99.90;;;;;;5068508;28;20623;-70
2022/07/07 06:26:02;;;;;;;14.93;2.95;;;15.50;99.90;;;;;;5081496;28;20084;-69
2022/07/07 06:28:29;;;;;;;10.57;3.17;;;15.50;99.90;;;;;;5047275;28;20088;-70
2022/07/07 06:30:54;;;;;;;17.33;2.55;;;15.60;99.90;;;;;;5028553;28;20163;-68
2022/07/07 06:33:20;;;;;;;11.50;2.58;;;15.70;99.90;;;;;;5065488;28;20578;-70
2022/07/07 06:35:46;;;;;;;12.25;2.53;;;15.70;99.90;;;;;;5054314;28;20037;-70
2022/07/07 06:38:11;;;;;;;12.18;2.40;;;15.70;99.90;;;;;;5050885;28;20044;-70
2022/07/07 06:40:37;;;;;;;14.90;2.60;;;15.80;99.90;;;;;;5060553;28;20051;-69
2022/07/07 06:43:03;;;;;;;8.57;2.28;;;15.80;99.90;;;;;;5077553;28;20135;-69
2022/07/07 06:45:29;;;;;;;11.50;2.47;;;15.90;99.90;;;;;;5060605;28;20049;-70
2022/07/07 06:47:55;;;;;;;13.00;2.50;;;15.90;99.90;;;;;;5036687;28;20052;-70
2022/07/07 06:50:21;;;;;;;9.85;1.98;;;15.90;99.90;;;;;;5027247;28;20053;-70
2022/07/07 06:52:47;;;;;;;11.50;2.40;;;15.80;99.90;;;;;;5054014;28;20474;-70
2022/07/07 06:55:12;;;;;;;8.63;2.10;;;15.90;99.90;;;;;;5049809;28;20045;-72
2022/07/07 06:57:38;;;;;;;11.10;2.47;;;15.90;99.90;;;;;;5061404;28;20088;-70
2022/07/07 07:00:06;;;;;;;9.75;2.53;;;15.90;99.90;;;;;;5057785;28;20117;-72
2022/07/07 07:02:32;;;;;;;9.75;2.17;;;16.00;99.90;;;;;;5061585;28;20060;-70
2022/07/07 07:04:57;;;;;;;8.38;1.80;;;16.20;99.90;;;;;;5049942;28;20402;-69
2022/07/07 07:07:23;;;;;;;8.55;2.13;;;16.40;99.90;;;;;;5040348;28;20052;-71
2022/07/07 07:09:49;;;;;;;6.05;2.05;;;16.50;99.90;;;;;;5060321;28;20040;-72
2022/07/07 07:12:15;;;;;;;9.80;2.00;;;16.60;99.90;;;;;;5071922;28;20072;-71
2022/07/07 07:14:41;;;;;;;13.13;2.25;;;16.60;99.90;;;;;;5052380;28;20041;-71
2022/07/07 07:17:06;;;;;;;10.85;2.08;;;16.70;99.90;;;;;;5051983;28;20124;-72
2022/07/07 07:19:32;;;;;;;9.18;1.90;;;16.80;99.90;;;;;;5042048;28;20084;-73
2022/07/07 07:21:58;;;;;;;5.60;1.60;;;17.00;99.90;;;;;;5057425;28;20057;-71
2022/07/07 07:24:24;;;;;;;3.97;1.60;;;17.00;99.90;;;;;;5058779;28;20056;-73
2022/07/07 07:26:49;;;;;;;6.50;1.50;;;17.00;99.90;;;;;;5053264;28;20040;-71
2022/07/07 07:29:15;;;;;;;7.65;1.77;;;17.10;99.90;;;;;;5051484;28;20052;-72
2022/07/07 07:31:41;;;;;;;7.30;1.48;;;17.20;99.90;;;;;;5052251;28;20379;-68
2022/07/07 07:34:08;;;;;;;10.32;1.77;;;17.50;99.90;;;;;;5070115;28;20123;-68
2022/07/07 07:36:33;;;;;;;6.38;2.08;;;17.80;99.90;;;;;;5037208;28;20143;-68
2022/07/07 07:38:59;;;;;;;9.45;1.67;;;18.10;99.90;;;;;;5069254;28;20422;-68
2022/07/07 07:41:26;;;;;;;9.10;1.40;;;18.00;99.90;;;;;;5066735;28;20171;-67
2022/07/07 07:43:51;;;;;;;6.28;1.50;;;17.60;99.90;;;;;;5054434;28;20124;-68
2022/07/07 07:46:19;;;;;;;7.70;1.77;;;17.60;99.90;;;;;;5050373;28;20131;-69
2022/07/07 07:48:45;;;;;;;6.15;1.30;;;17.50;99.90;;;;;;5043941;28;20041;-68
2022/07/07 07:51:10;;;;;;;8.48;1.42;;;17.50;99.90;;;;;;5080164;28;20414;-70
2022/07/07 07:53:36;;;;;;;7.68;1.23;;;17.70;99.90;;;;;;5043175;28;20048;-69
2022/07/07 07:56:02;;;;;;;5.55;1.30;;;17.70;99.90;;;;;;5048423;28;20896;-68
2022/07/07 07:58:28;;;;;;;6.32;1.60;;;17.70;99.90;;;;;;5050946;28;20443;-68
2022/07/07 08:00:53;;;;;;;5.10;1.10;;;17.80;99.90;;;;;;5068422;28;20056;-67
2022/07/07 08:03:19;;;;;;;3.72;1.05;;;17.80;99.90;;;;;;5064763;28;20044;-68
2022/07/07 08:05:45;;;;;;;4.70;1.40;;;17.70;99.90;;;;;;5046034;28;20136;-67
2022/07/07 08:08:10;;;;;;;4.13;1.20;;;17.80;99.90;;;;;;5060575;28;20477;-67
2022/07/07 08:10:36;;;;;;;3.95;1.17;;;17.90;99.90;;;;;;5045319;28;20370;-68
2022/07/07 08:13:02;;;;;;;6.50;0.90;;;18.00;99.90;;;;;;5060215;28;20560;-70
2022/07/07 08:15:28;;;;;;;5.22;0.80;;;18.00;99.90;;;;;;5059275;28;20053;-68
2022/07/07 08:17:53;;;;;;;4.30;0.77;;;17.90;99.90;;;;;;5058476;28;20485;-67
2022/07/07 08:20:19;;;;;;;4.95;0.88;;;17.90;99.90;;;;;;5014300;28;20036;-70
2022/07/07 08:22:45;;;;;;;5.60;0.90;;;17.90;99.90;;;;;;5054035;28;20068;-69
2022/07/07 08:25:11;;;;;;;3.10;0.70;;;17.90;99.90;;;;;;5049151;28;20528;-68
2022/07/07 08:27:37;;;;;;;4.80;1.15;;;18.20;99.90;;;;;;5067297;28;20044;-69
2022/07/07 08:30:05;;;;;;;5.47;1.15;;;18.70;99.90;;;;;;5053622;28;20057;-67
2022/07/07 08:32:31;;;;;;;4.32;0.90;;;19.00;99.90;;;;;;5045484;28;20083;-67
2022/07/07 08:34:56;;;;;;;6.80;1.00;;;19.00;99.90;;;;;;5059524;28;20158;-68
2022/07/07 08:37:22;;;;;;;3.58;0.90;;;18.70;99.90;;;;;;5044794;28;20602;-68
2022/07/07 08:39:48;;;;;;;5.82;1.20;;;18.20;99.90;;;;;;5067485;28;20049;-69
2022/07/07 08:42:14;;;;;;;3.63;0.80;;;18.00;99.90;;;;;;5061255;28;20106;-67
2022/07/07 08:44:39;;;;;;;7.15;0.98;;;17.90;99.90;;;;;;5059875;28;20052;-68
2022/07/07 08:47:05;;;;;;;6.45;1.10;;;18.00;99.90;;;;;;5050873;28;20049;-67
2022/07/07 08:49:31;;;;;;;5.13;0.90;;;18.40;99.90;;;;;;5033911;28;20045;-68
2022/07/07 08:51:57;;;;;;;4.80;1.15;;;18.40;99.90;;;;;;5045787;28;20131;-67
2022/07/07 08:54:24;;;;;;;4.32;1.08;;;18.40;99.90;;;;;;5058331;28;20038;-71
2022/07/07 08:56:51;;;;;;;4.72;1.38;;;18.20;99.90;;;;;;5053466;28;20053;-68
2022/07/07 08:59:18;;;;;;;4.82;1.00;;;17.90;99.90;;;;;;5071812;28;20052;-67
2022/07/07 09:01:59;;;;;;;3.75;0.93;;;17.90;99.90;;;;;;5075024;28;20048;-67
2022/07/07 09:04:25;;;;;;;3.85;0.95;;;18.00;99.90;;;;;;5060121;28;20196;-68
2022/07/07 09:06:53;;;;;;;2.85;1.08;;;18.00;99.90;;;;;;5045352;28;20066;-66
2022/07/07 09:09:37;;;;;;;2.78;1.00;;;18.20;99.90;;;;;;5052965;28;20571;-67
2022/07/07 09:12:04;;;;;;;4.93;1.20;;;18.50;99.90;;;;;;5067381;28;20075;-67
2022/07/07 09:14:42;;;;;;;4.80;1.33;;;18.70;99.90;;;;;;5051752;28;20142;-68
2022/07/07 09:17:27;;;;;;;3.30;1.10;;;18.90;99.90;;;;;;5067263;28;20045;-67
2022/07/07 09:20:06;;;;;;;2.10;1.25;;;19.00;99.90;;;;;;5068825;28;20401;-68
2022/07/07 09:22:45;;;;;;;4.15;1.30;;;19.10;99.90;;;;;;5059967;28;20123;-67
2022/07/07 09:25:12;;;;;;;3.15;1.23;;;18.80;99.90;;;;;;5066340;28;20080;-68
2022/07/07 09:28:06;;;;;;;4.28;1.20;;;18.70;99.90;;;;;;5050647;28;20397;-68
2022/07/07 09:30:40;;;;;;;6.22;1.60;;;18.30;99.90;;;;;;5048258;28;20110;-68
2022/07/07 09:33:19;;;;;;;5.68;1.60;;;18.20;99.90;;;;;;5069076;28;20049;-68
2022/07/07 09:38:32;;;;;;;10.00;1.80;;;18.40;99.90;;;;;;5036535;28;20474;-67
2022/07/07 09:41:13;;;;;;;4.72;1.35;;;18.50;99.90;;;;;;5047327;28;20087;-67
2022/07/07 09:43:53;;;;;;;5.07;1.85;;;18.60;99.90;;;;;;5061136;28;20545;-69
2022/07/07 09:46:26;;;;;;;7.78;1.63;;;18.60;99.90;;;;;;5040328;28;20505;-67
2022/07/07 09:48:54;;;;;;;5.32;1.42;;;18.80;99.90;;;;;;5040625;28;20478;-68
2022/07/07 09:51:26;;;;;;;6.65;1.20;;;18.90;99.90;;;;;;5050354;28;20059;-68
2022/07/07 09:53:56;;;;;;;3.60;1.20;;;19.20;99.90;;;;;;5042874;28;20044;-68
2022/07/07 09:56:23;;;;;;;7.30;1.60;;;19.20;99.90;;;;;;5045249;28;20206;-67
2022/07/07 09:58:49;;;;;;;5.18;1.65;;;19.10;99.90;;;;;;5042189;28;20371;-67
2022/07/07 10:01:17;;;;;;;5.85;1.80;;;18.90;99.90;;;;;;5039578;28;20556;-67
2022/07/07 10:03:43;;;;;;;6.85;1.60;;;18.90;99.90;;;;;;5071470;28;20037;-71
2022/07/07 10:06:10;;;;;;;4.15;1.08;;;19.00;99.90;;;;;;5048310;28;20218;-68
2022/07/07 10:08:43;;;;;;;5.28;0.90;;;19.10;99.90;;;;;;5054140;28;20052;-68
2022/07/07 10:11:11;;;;;;;2.63;0.70;;;19.20;99.90;;;;;;5062632;28;20054;-67
2022/07/07 10:13:41;;;;;;;3.58;1.05;;;19.30;99.90;;;;;;5036001;28;20079;-67
2022/07/07 10:16:07;;;;;;;4.60;0.90;;;19.20;99.90;;;;;;5062986;28;20045;-67
2022/07/07 10:18:35;;;;;;;2.67;0.98;;;19.00;99.90;;;;;;5034957;28;20115;-67
2022/07/07 10:21:01;;;;;;;5.75;1.27;;;18.60;99.90;;;;;;5037761;28;20068;-67
2022/07/07 10:23:29;;;;;;;5.93;1.27;;;18.50;99.90;;;;;;5054980;28;20052;-67
2022/07/07 10:26:01;;;;;;;7.07;1.70;;;18.40;99.90;;;;;;5060973;28;20135;-67
2022/07/07 10:28:51;;;;;;;5.93;1.42;;;18.70;99.90;;;;;;5080879;28;20056;-68
2022/07/07 10:31:25;;;;;;;6.67;1.30;;;19.10;99.90;;;;;;5056747;28;20051;-67
2022/07/07 10:33:55;;;;;;;9.27;1.83;;;19.30;99.90;;;;;;5055042;28;20299;-68
2022/07/07 10:36:21;;;;;;;8.35;1.80;;;19.30;99.90;;;;;;5054897;28;20293;-71
2022/07/07 10:38:52;;;;;;;10.27;1.80;;;19.00;99.90;;;;;;5063449;28;20042;-71
2022/07/07 10:41:24;;;;;;;9.95;2.75;;;18.60;99.90;;;;;;5062597;28;20059;-70
2022/07/07 10:44:04;;;;;;;9.63;1.90;;;18.40;99.90;;;;;;5062835;28;20055;-70
2022/07/07 10:46:30;;;;;;;7.50;1.98;;;18.20;99.90;;;;;;5068419;28;20040;-70
2022/07/07 10:49:09;;;;;;;11.85;1.80;;;18.10;99.90;;;;;;5072959;28;20051;-70
2022/07/07 10:51:52;;;;;;;12.40;2.20;;;18.30;99.90;;;;;;5062979;28;20037;-72
2022/07/07 10:54:33;;;;;;;11.52;1.85;;;18.50;99.90;;;;;;5058467;28;20044;-71
2022/07/07 10:56:59;;;;;;;14.10;2.10;;;18.60;99.90;;;;;;5044230;28;20054;-71
2022/07/07 10:59:26;;;;;;;10.80;1.80;;;19.00;99.90;;;;;;5061992;28;20377;-71
2022/07/07 11:05:34;;;;;;;14.18;2.60;;;18.90;99.90;;;;;;5060256;28;20151;-73
2022/07/07 11:08:02;;;;;;;19.45;2.65;;;18.70;99.90;;;;;;5054990;28;20497;-72
2022/07/07 11:10:37;;;;;;;13.02;2.03;;;18.70;99.90;;;;;;5074699;28;20052;-73
2022/07/07 11:13:33;;;;;;;13.02;2.40;;;18.40;99.90;;;;;;5052506;28;20055;-71
2022/07/07 11:16:10;;;;;;;9.63;2.13;;;18.50;99.90;;;;;;5061826;28;20059;-73
2022/07/07 11:18:36;;;;;;;15.35;2.60;;;18.60;99.90;;;;;;5070850;28;20514;-73
2022/07/07 11:21:05;;;;;;;11.18;1.88;;;18.90;99.90;;;;;;5064250;28;20040;-72
2022/07/07 11:23:57;;;;;;;8.25;1.90;;;19.20;99.90;;;;;;5059721;28;20714;-72
2022/07/07 11:26:25;;;;;;;14.40;2.00;;;19.40;99.90;;;;;;5047787;28;20045;-72
2022/07/07 11:28:53;;;;;;;10.18;1.90;;;19.50;99.90;;;;;;5049256;28;20094;-74
2022/07/07 11:31:19;;;;;;;8.73;1.85;;;19.50;99.90;;;;;;5055291;28;20044;-73
2022/07/07 11:33:58;;;;;;;9.25;2.00;;;19.40;99.90;;;;;;5050509;28;20056;-73
2022/07/07 11:36:29;;;;;;;8.63;1.48;;;19.20;99.90;;;;;;5066169;28;20558;-72
2022/07/07 11:38:57;;;;;;;12.10;1.90;;;19.10;99.90;;;;;;5044566;28;20048;-73
2022/07/07 11:41:41;;;;;;;10.05;2.00;;;19.10;99.90;;;;;;5049715;28;20052;-72
2022/07/07 11:44:16;;;;;;;12.13;1.80;;;18.90;99.90;;;;;;5056543;28;20055;-73
2022/07/07 11:46:43;;;;;;;13.20;2.08;;;18.60;99.90;;;;;;5041112;28;20084;-77
2022/07/07 11:49:15;;;;;;;13.52;2.30;;;18.50;99.90;;;;;;5058488;28;20117;-77
2022/07/07 11:51:42;;;;;;;;;;;18.30;99.90;;;;;;5062827;28;20106;-73
2022/07/07 11:54:07;;;;;;;10.15;2.10;;;18.20;99.90;;;;;;5062881;28;19943;-71
2022/07/07 11:56:35;;;;;;;17.20;2.58;;;18.30;99.90;;;;;;5068068;28;20488;-71
2022/07/07 11:59:02;;;;;;;9.90;2.47;;;18.60;99.90;;;;;;5055033;28;20489;-71
2022/07/07 12:01:36;;;;;;;13.05;2.20;;;18.80;99.90;;;;;;5044601;28;20536;-72
2022/07/07 12:04:22;;;;;;;13.52;2.15;;;18.90;99.90;;;;;;5046648;28;20390;-71
2022/07/07 12:06:48;;;;;;;13.65;2.90;;;19.00;99.90;;;;;;5061836;28;20048;-71
2022/07/07 12:09:16;;;;;;;13.20;2.20;;;19.10;99.90;;;;;;5061748;28;20453;-71
2022/07/07 12:11:42;;;;;;;13.18;2.60;;;19.20;99.90;;;;;;5061524;28;20385;-71
2022/07/07 12:14:10;;;;;;;13.20;2.42;;;19.20;99.90;;;;;;5051119;28;20037;-71
2022/07/07 12:16:47;;;;;;;10.43;2.28;;;19.30;99.90;;;;;;5060965;28;20099;-71
2022/07/07 12:19:13;;;;;;;15.32;2.13;;;19.50;99.90;;;;;;5047130;28;20060;-72
2022/07/07 12:21:43;;;;;;;14.25;2.20;;;19.80;99.90;;;;;;5055563;28;20057;-71
2022/07/07 12:24:16;;;;;;;9.43;2.05;;;19.90;99.90;;;;;;5046567;28;20139;-72
2022/07/07 12:26:48;;;;;;;14.32;2.45;;;19.80;99.90;;;;;;5067561;28;20106;-72
2022/07/07 12:29:16;;;;;;;13.70;2.38;;;19.80;99.90;;;;;;5051266;28;20053;-71
2022/07/07 12:31:42;;;;;;;16.17;2.63;;;19.50;99.90;;;;;;5050370;28;20114;-71
2022/07/07 12:34:13;;;;;;;12.02;2.20;;;19.30;99.90;;;;;;5069748;28;20489;-71
2022/07/07 12:36:41;;;;;;;15.02;2.47;;;18.90;99.90;;;;;;5042575;28;20183;-71
2022/07/07 12:39:07;;;;;;;10.05;2.20;;;18.70;99.90;;;;;;5038989;28;20481;-71
2022/07/07 12:41:34;;;;;;;10.35;2.28;;;18.80;99.90;;;;;;5082734;28;20123;-71
2022/07/07 12:44:16;;;;;;;15.52;2.63;;;19.00;99.90;;;;;;5039718;28;20139;-71
2022/07/07 12:46:42;;;;;;;9.55;2.03;;;19.10;99.90;;;;;;5056365;28;20691;-71
2022/07/07 12:49:09;;;;;;;9.85;2.35;;;19.20;99.90;;;;;;5031568;28;20489;-71